Time;durP1;ratioP1;P1;durP2;ratioP2;P2;SDS_P1;SDS_P2;PMS_P1;PMS_P2;Temp;Humidity;BMP_temperature;BMP_pressure;BME280_temperature;BME280_humidity;BME280_pressure;Samples;Min_cycle;Max_cycle;Signal;HPM_P1;HPM_P2
2024/02/07 00:01:17;;;;;;;6.63;3.90;;;;;;;6.33;100.00;92615.78;5005159;28;20037;-79
2024/02/07 00:03:44;;;;;;;8.88;4.18;;;;;;;6.32;100.00;92616.81;5005107;28;20049;-78
2024/02/07 00:06:11;;;;;;;7.13;3.83;;;;;;;6.32;100.00;92606.41;5005723;28;20097;-79
2024/02/07 00:08:37;;;;;;;7.15;4.35;;;;;;;6.32;100.00;92609.00;5005511;28;20387;-79
2024/02/07 00:11:03;;;;;;;6.85;4.03;;;;;;;6.31;100.00;92602.25;5005162;28;20101;-79
2024/02/07 00:13:28;;;;;;;7.80;4.55;;;;;;;6.33;100.00;92602.78;5024948;28;20057;-79
2024/02/07 00:15:54;;;;;;;13.52;6.20;;;;;;;6.32;100.00;92598.59;5005423;28;20030;-79
2024/02/07 00:18:19;;;;;;;8.32;5.40;;;;;;;6.33;100.00;92594.22;5005622;28;20072;-79
2024/02/07 00:20:45;;;;;;;11.18;5.30;;;;;;;6.32;100.00;92595.22;5002773;28;20066;-80
2024/02/07 00:23:14;;;;;;;9.00;6.32;;;;;;;6.31;100.00;92591.84;5004240;28;20050;-79
2024/02/07 00:25:39;;;;;;;13.45;7.18;;;;;;;6.32;100.00;92592.63;5002844;28;20042;-79
2024/02/07 00:28:06;;;;;;;15.40;7.55;;;;;;;6.34;100.00;92588.72;5004859;28;20038;-79
2024/02/07 00:30:31;;;;;;;18.27;7.75;;;;;;;6.39;100.00;92578.34;5005241;28;20073;-79
2024/02/07 00:32:57;;;;;;;11.50;7.13;;;;;;;6.36;100.00;92572.88;5003382;28;20057;-79
2024/02/07 00:35:26;;;;;;;7.20;4.97;;;;;;;6.31;100.00;92585.88;5004119;28;20034;-79
2024/02/07 00:37:52;;;;;;;8.65;4.80;;;;;;;6.27;100.00;92577.81;5002570;28;20050;-78
2024/02/07 00:40:17;;;;;;;8.60;4.85;;;;;;;6.26;100.00;92571.06;5003365;28;20035;-79
2024/02/07 00:42:43;;;;;;;11.05;5.68;;;;;;;6.24;100.00;92565.31;5002342;28;20076;-79
2024/02/07 00:45:09;;;;;;;12.50;6.22;;;;;;;6.20;100.00;92559.06;5002987;28;20030;-79
2024/02/07 00:47:34;;;;;;;10.02;6.25;;;;;;;6.23;100.00;92571.53;5003846;28;20037;-79
2024/02/07 00:50:00;;;;;;;15.38;8.20;;;;;;;6.22;100.00;92573.38;5002165;28;20038;-80
2024/02/07 00:52:25;;;;;;;14.23;8.32;;;;;;;6.21;100.00;92564.03;5003381;28;20102;-79
2024/02/07 00:54:51;;;;;;;15.10;8.70;;;;;;;6.20;100.00;92569.47;5002554;28;20053;-79
2024/02/07 00:57:16;;;;;;;15.38;8.93;;;;;;;6.20;100.00;92570.25;5003070;28;20049;-79
2024/02/07 00:59:42;;;;;;;16.02;8.70;;;;;;;6.18;100.00;92567.13;5003807;28;20046;-79
2024/02/07 01:02:07;;;;;;;10.95;7.80;;;;;;;6.18;100.00;92561.91;5004630;28;20058;-79
2024/02/07 01:04:33;;;;;;;11.88;7.63;;;;;;;6.20;100.00;92559.06;5003474;28;20089;-79
2024/02/07 01:06:58;;;;;;;12.00;8.25;;;;;;;6.19;100.00;92552.31;5002447;28;20052;-79
2024/02/07 01:09:24;;;;;;;13.48;7.30;;;;;;;6.21;100.00;92556.22;5005527;28;20026;-79
2024/02/07 01:11:51;;;;;;;13.02;7.78;;;;;;;6.20;100.00;92559.84;4983012;28;20051;-79
2024/02/07 01:14:16;;;;;;;12.02;7.80;;;;;;;6.21;100.00;92558.03;4999439;28;20045;-79
2024/02/07 01:16:43;;;;;;;14.60;7.72;;;;;;;6.23;100.00;92561.16;5004651;28;20034;-79
2024/02/07 01:19:09;;;;;;;13.60;8.02;;;;;;;6.20;100.00;92551.28;5004604;28;20045;-79
2024/02/07 01:21:35;;;;;;;15.32;7.75;;;;;;;6.19;100.00;92565.28;4989309;28;20042;-78
2024/02/07 01:24:00;;;;;;;14.10;7.60;;;;;;;6.18;100.00;92558.56;4985602;28;20086;-79
2024/02/07 01:26:27;;;;;;;11.60;6.93;;;;;;;6.18;100.00;92555.94;4985549;28;20045;-79
2024/02/07 01:28:52;;;;;;;11.88;7.65;;;;;;;6.18;100.00;92545.56;4985921;28;20205;-79
2024/02/07 01:31:24;;;;;;;13.65;8.00;;;;;;;6.20;100.00;92554.66;5000551;28;20018;-79
2024/02/07 01:33:49;;;;;;;14.97;8.50;;;;;;;6.20;100.00;92546.06;4988647;28;20138;-78
2024/02/07 01:36:15;;;;;;;17.63;8.48;;;;;;;6.21;100.00;92545.03;5003610;28;20050;-79
2024/02/07 01:38:41;;;;;;;16.02;8.98;;;;;;;6.21;100.00;92548.44;5005246;28;20030;-77
2024/02/07 01:41:08;;;;;;;14.07;7.40;;;;;;;6.19;100.00;92536.69;5005392;28;20105;-79
2024/02/07 01:43:34;;;;;;;13.18;7.65;;;;;;;6.15;100.00;92536.44;5005346;28;20034;-79
2024/02/07 01:46:00;;;;;;;13.05;8.10;;;;;;;6.13;100.00;92529.97;5004814;28;20098;-79
2024/02/07 01:48:27;;;;;;;13.52;8.10;;;;;;;6.11;100.00;92529.44;5004434;28;20050;-79
2024/02/07 01:50:54;;;;;;;10.70;7.40;;;;;;;6.07;100.00;92523.19;5005462;28;20045;-79
2024/02/07 01:53:21;;;;;;;16.13;8.25;;;;;;;6.10;100.00;92527.84;5004098;28;20061;-79
2024/02/07 01:55:50;;;;;;;16.48;8.05;;;;;;;6.10;100.00;92522.66;5005672;28;20030;-79
2024/02/07 01:58:16;;;;;;;14.77;7.88;;;;;;;6.10;100.00;92522.66;5004732;28;20041;-79
2024/02/07 02:00:46;;;;;;;16.40;8.13;;;;;;;6.05;100.00;92511.19;5006226;28;20034;-79
2024/02/07 02:03:13;;;;;;;14.32;8.00;;;;;;;6.11;100.00;92522.41;5004470;28;20100;-79
2024/02/07 02:05:39;;;;;;;14.05;7.82;;;;;;;6.09;100.00;92521.88;5005766;28;20042;-79
2024/02/07 02:08:06;;;;;;;14.10;7.40;;;;;;;6.08;100.00;92514.31;5005800;28;20073;-79
2024/02/07 02:10:31;;;;;;;13.52;7.72;;;;;;;6.09;100.00;92510.72;5005898;28;20039;-79
2024/02/07 02:12:58;;;;;;;14.93;8.10;;;;;;;6.09;100.00;92515.91;5004716;28;20052;-79
2024/02/07 02:15:28;;;;;;;12.43;7.25;;;;;;;6.05;100.00;92506.00;5002395;28;20126;-79
2024/02/07 02:17:54;;;;;;;12.75;7.22;;;;;;;6.04;100.00;92491.47;5004692;28;20034;-79
2024/02/07 02:20:20;;;;;;;10.57;7.15;;;;;;;6.09;100.00;92489.91;5001294;28;20037;-79
2024/02/07 02:22:59;;;;;;;11.38;6.95;;;;;;;6.10;100.00;92492.25;5005793;28;20066;-79
2024/02/07 02:25:37;;;;;;;11.57;7.00;;;;;;;6.10;100.00;92496.66;5005335;28;20098;-79
2024/02/07 02:28:18;;;;;;;16.25;7.75;;;;;;;6.07;100.00;92486.78;5004559;28;20061;-79
2024/02/07 02:30:50;;;;;;;12.63;7.30;;;;;;;6.06;100.00;92486.03;5005921;28;20041;-79
2024/02/07 02:33:18;;;;;;;13.73;7.32;;;;;;;6.04;100.00;92483.66;5005963;28;20058;-79
2024/02/07 02:35:49;;;;;;;12.30;6.90;;;;;;;6.07;100.00;92482.38;5003117;28;20038;-79
2024/02/07 02:38:15;;;;;;;11.93;7.10;;;;;;;6.06;100.00;92478.22;5001335;28;20070;-78
2024/02/07 02:40:41;;;;;;;9.52;5.80;;;;;;;6.06;100.00;92470.44;5005370;28;20045;-79
2024/02/07 02:43:09;;;;;;;10.52;5.80;;;;;;;6.06;100.00;92475.63;5005516;28;20034;-79
2024/02/07 02:45:38;;;;;;;8.10;5.40;;;;;;;6.03;100.00;92465.72;5003587;28;20114;-79
2024/02/07 02:48:04;;;;;;;11.55;5.40;;;;;;;6.02;100.00;92467.56;5003106;28;20073;-79
2024/02/07 02:50:31;;;;;;;8.45;5.13;;;;;;;6.01;100.00;92463.41;5005792;28;20097;-79
2024/02/07 02:52:58;;;;;;;10.13;5.78;;;;;;;5.98;100.00;92465.72;5006154;28;20044;-79
2024/02/07 02:55:29;;;;;;;7.03;4.72;;;;;;;5.98;100.00;92463.91;5003914;28;20498;-79
2024/02/07 02:58:00;;;;;;;10.85;5.45;;;;;;;6.00;100.00;92461.06;4997452;28;20049;-80
2024/02/07 03:00:27;;;;;;;9.88;5.88;;;;;;;6.00;100.00;92459.22;5005885;28;20043;-79
2024/02/07 03:02:58;;;;;;;14.82;6.57;;;;;;;5.94;100.00;92456.84;5005309;28;20045;-79
2024/02/07 03:05:38;;;;;;;9.35;5.65;;;;;;;5.93;100.00;92455.31;5000870;28;20150;-80
2024/02/07 03:08:21;;;;;;;10.80;5.70;;;;;;;5.88;100.00;92444.88;4999562;28;20118;-79
2024/02/07 03:10:49;;;;;;;11.00;5.28;;;;;;;6.01;100.00;92442.63;5012005;28;20322;-79
2024/02/07 03:13:15;;;;;;;9.98;5.85;;;;;;;5.98;100.00;92448.31;5006594;28;20050;-80
2024/02/07 03:15:41;;;;;;;13.13;6.45;;;;;;;5.89;100.00;92442.03;5005886;28;20049;-80
2024/02/07 03:18:07;;;;;;;11.55;6.82;;;;;;;5.80;100.00;92433.19;4999835;28;20312;-79
2024/02/07 03:20:33;;;;;;;12.02;7.57;;;;;;;5.77;100.00;92431.91;4987238;28;20045;-79
2024/02/07 03:22:59;;;;;;;15.85;7.68;;;;;;;5.77;100.00;92431.13;4986660;28;20031;-79
2024/02/07 03:25:26;;;;;;;12.15;6.80;;;;;;;5.76;100.00;92432.91;4986622;28;20043;-79
2024/02/07 03:27:51;;;;;;;14.43;6.90;;;;;;;5.78;100.00;92427.47;4999367;28;20069;-78
2024/02/07 03:30:21;;;;;;;12.57;7.50;;;;;;;5.77;100.00;92425.94;5006662;28;20058;-79
2024/02/07 03:32:47;;;;;;;11.40;7.28;;;;;;;5.78;100.00;92427.47;5007498;28;20030;-78
2024/02/07 03:35:14;;;;;;;16.58;8.00;;;;;;;5.79;100.00;92426.44;5006951;28;20037;-80
2024/02/07 03:37:40;;;;;;;11.27;7.03;;;;;;;5.80;100.00;92425.41;5006932;28;20049;-79
2024/02/07 03:40:12;;;;;;;9.93;6.50;;;;;;;5.81;100.00;92411.38;5007725;28;20030;-80
2024/02/07 03:42:41;;;;;;;11.48;6.47;;;;;;;5.79;100.00;92418.66;5007808;28;20085;-79
2024/02/07 03:45:11;;;;;;;12.63;6.30;;;;;;;5.81;100.00;92416.59;5026378;28;20091;-79
2024/02/07 03:47:40;;;;;;;13.57;6.50;;;;;;;5.85;100.00;92415.00;5027041;28;20057;-79
2024/02/07 03:50:15;;;;;;;14.88;6.95;;;;;;;5.81;100.00;92412.16;5026360;28;20057;-79
2024/02/07 03:52:43;;;;;;;10.27;6.80;;;;;;;5.80;100.00;92415.00;5024817;28;20037;-79
2024/02/07 03:55:15;;;;;;;11.50;6.32;;;;;;;5.78;100.00;92411.88;5007266;28;20447;-79
2024/02/07 03:57:43;;;;;;;;;;;;;;;5.77;100.00;92410.34;5007778;28;20045;-79
2024/02/07 04:00:15;;;;;;;9.77;5.68;;;;;;;5.77;100.00;92402.53;5004799;28;19917;-80
2024/02/07 04:02:43;;;;;;;10.63;5.38;;;;;;;5.77;100.00;92405.91;5005044;28;20049;-78
2024/02/07 04:05:09;;;;;;;11.73;4.63;;;;;;;5.76;100.00;92403.56;4986275;28;20101;-79
2024/02/07 04:07:35;;;;;;;8.90;4.80;;;;;;;5.74;100.00;92397.84;4985665;28;20042;-79
2024/02/07 04:10:09;;;;;;;7.35;3.95;;;;;;;5.73;100.00;92394.47;4987055;28;20038;-79
2024/02/07 05:15:51;;;;;;;7.82;3.90;;;;;;;5.71;100.00;92362.78;4987618;28;20548;-79
2024/02/07 05:18:19;;;;;;;7.20;4.03;;;;;;;5.68;100.00;92359.94;5008731;28;20034;-79
2024/02/07 05:20:48;;;;;;;7.85;4.50;;;;;;;5.69;100.00;92362.25;5005687;28;20027;-78
2024/02/07 05:23:16;;;;;;;7.75;4.70;;;;;;;5.69;100.00;92359.66;5000562;28;20073;-78
2024/02/07 05:25:46;;;;;;;7.28;4.40;;;;;;;5.69;100.00;92359.66;4999224;28;20034;-78
2024/02/07 05:28:15;;;;;;;8.55;4.88;;;;;;;5.65;100.00;92353.41;4999715;28;20137;-78
2024/02/07 05:30:41;;;;;;;6.22;3.78;;;;;;;5.78;100.00;92365.13;5001102;28;20125;-78
2024/02/07 05:33:07;;;;;;;10.60;5.15;;;;;;;5.76;100.00;92367.97;5000129;28;20062;-78
2024/02/07 05:35:32;;;;;;;8.70;4.25;;;;;;;5.73;100.00;92363.31;4998483;28;20117;-77
2024/02/07 05:37:59;;;;;;;5.95;4.22;;;;;;;5.70;100.00;92368.25;5000299;28;20137;-81
2024/02/07 05:40:25;;;;;;;9.75;5.22;;;;;;;5.67;100.00;92363.56;4996551;28;20057;-77
2024/02/07 05:42:51;;;;;;;9.32;5.38;;;;;;;5.66;100.00;92356.81;4998193;28;20034;-79
2024/02/07 05:45:19;;;;;;;10.70;4.28;;;;;;;5.64;100.00;92360.44;4998837;28;20030;-80
2024/02/07 05:47:44;;;;;;;7.68;4.97;;;;;;;5.65;100.00;92361.22;5000850;28;20540;-79
2024/02/07 05:50:11;;;;;;;9.75;4.93;;;;;;;5.63;100.00;92352.94;4994328;28;20051;-78
2024/02/07 05:52:41;;;;;;;7.78;4.55;;;;;;;5.64;100.00;92346.69;4993481;28;20035;-77
2024/02/07 05:55:08;;;;;;;7.05;4.97;;;;;;;5.61;100.00;92349.81;4993395;28;20023;-78
2024/02/07 05:57:34;;;;;;;7.05;4.40;;;;;;;5.63;100.00;92343.31;4991835;28;20034;-79
2024/02/07 06:00:04;;;;;;;6.80;4.35;;;;;;;5.70;100.00;92347.47;4988929;28;20515;-78
2024/02/07 06:02:37;;;;;;;8.88;4.53;;;;;;;5.73;100.00;92339.16;4991278;28;20050;-78
2024/02/07 06:05:05;;;;;;;6.55;3.97;;;;;;;5.71;100.00;92333.44;4998536;28;20033;-78
2024/02/07 06:07:31;;;;;;;7.47;4.50;;;;;;;5.72;100.00;92337.59;4995524;28;20070;-78
2024/02/07 06:09:58;;;;;;;6.90;4.60;;;;;;;5.73;100.00;92341.75;4996370;28;20030;-77
2024/02/07 06:12:24;;;;;;;8.43;4.57;;;;;;;5.74;100.00;92340.72;4995660;28;20564;-78
2024/02/07 06:14:51;;;;;;;9.88;4.55;;;;;;;5.73;100.00;92339.16;4975783;28;20046;-78
2024/02/07 06:17:17;;;;;;;8.50;4.32;;;;;;;5.70;100.00;92337.88;4995777;28;20027;-77
2024/02/07 06:19:42;;;;;;;7.55;4.15;;;;;;;5.71;100.00;92331.63;4995209;28;20511;-78
2024/02/07 06:22:08;;;;;;;8.02;4.28;;;;;;;5.71;100.00;92329.03;4995051;28;20038;-78
2024/02/07 06:24:35;;;;;;;8.75;4.63;;;;;;;5.70;100.00;92337.09;5000727;28;20039;-78
2024/02/07 06:27:01;;;;;;;8.18;4.43;;;;;;;5.66;100.00;92347.22;4997806;28;20046;-78
2024/02/07 06:29:26;;;;;;;8.75;4.53;;;;;;;5.64;100.00;92339.66;4981769;28;20029;-78
2024/02/07 06:31:54;;;;;;;7.20;4.50;;;;;;;5.68;100.00;92339.16;4995162;28;20050;-79
2024/02/07 06:34:20;;;;;;;7.90;4.18;;;;;;;5.78;100.00;92333.97;4995365;28;20588;-79
2024/02/07 06:36:46;;;;;;;7.18;4.38;;;;;;;5.84;100.00;92332.94;4986742;28;20037;-79
2024/02/07 06:39:12;;;;;;;8.32;4.30;;;;;;;5.81;100.00;92338.66;4996257;28;20038;-79
2024/02/07 06:41:37;;;;;;;7.50;4.22;;;;;;;5.79;100.00;92333.72;4978984;28;20062;-79
2024/02/07 06:44:03;;;;;;;6.93;4.40;;;;;;;5.84;100.00;92327.72;4996195;28;20384;-78
2024/02/07 06:46:29;;;;;;;6.47;4.25;;;;;;;5.84;100.00;92327.72;5014061;28;20034;-79
2024/02/07 06:48:55;;;;;;;8.38;3.97;;;;;;;5.85;100.00;92331.88;4994781;28;20028;-79
2024/02/07 06:51:20;;;;;;;6.55;4.07;;;;;;;5.84;100.00;92338.91;4990463;28;20042;-78
2024/02/07 06:53:46;;;;;;;10.20;4.47;;;;;;;5.82;100.00;92342.78;4994149;28;20042;-78
2024/02/07 06:56:12;;;;;;;6.68;3.95;;;;;;;5.88;100.00;92339.16;4994692;28;20042;-79
2024/02/07 06:58:37;;;;;;;7.20;4.55;;;;;;;5.89;100.00;92342.53;4993663;28;20073;-80
2024/02/07 07:01:03;;;;;;;8.27;4.18;;;;;;;5.91;100.00;92338.63;4995033;28;20189;-80
2024/02/07 07:03:30;;;;;;;7.35;3.95;;;;;;;5.90;100.00;92333.69;4992496;28;20038;-78
2024/02/07 07:05:58;;;;;;;7.22;4.20;;;;;;;5.84;100.00;92330.34;4992753;28;20042;-79
2024/02/07 07:08:24;;;;;;;8.50;4.18;;;;;;;5.88;100.00;92328.78;4992335;28;20042;-79
2024/02/07 07:10:50;;;;;;;6.85;4.05;;;;;;;5.89;100.00;92340.72;4995318;28;20042;-80
2024/02/07 07:13:15;;;;;;;7.60;4.07;;;;;;;5.81;100.00;92325.66;4997414;28;20112;-79
2024/02/07 07:15:41;;;;;;;8.18;4.03;;;;;;;5.91;100.00;92336.03;4996184;28;20042;-79
2024/02/07 07:18:08;;;;;;;7.55;4.15;;;;;;;5.87;100.00;92323.84;4997904;28;20042;-79
2024/02/07 07:20:34;;;;;;;6.05;4.00;;;;;;;5.90;100.00;92331.09;4996345;28;20038;-79
2024/02/07 07:23:00;;;;;;;7.80;4.10;;;;;;;5.99;100.00;92330.34;4998005;28;20118;-79
2024/02/07 07:25:26;;;;;;;5.95;4.40;;;;;;;6.00;100.00;92334.50;4995362;28;20046;-79
2024/02/07 07:27:51;;;;;;;9.32;3.85;;;;;;;6.13;100.00;92332.44;4994711;28;20038;-78
2024/02/07 07:30:17;;;;;;;7.35;4.13;;;;;;;6.35;100.00;92327.72;4994930;28;20406;-79
2024/02/07 07:32:43;;;;;;;5.85;3.70;;;;;;;6.29;100.00;92333.19;4992792;28;20050;-79
2024/02/07 07:35:08;;;;;;;6.55;4.05;;;;;;;6.25;100.00;92338.13;4994161;28;20026;-79
2024/02/07 07:37:34;;;;;;;5.88;3.88;;;;;;;6.22;100.00;92338.66;4995638;28;20151;-79
2024/02/07 07:40:01;;;;;;;8.02;3.97;;;;;;;6.16;100.00;92324.09;4995656;28;20453;-79
2024/02/07 07:42:27;;;;;;;6.32;3.75;;;;;;;6.39;100.00;92328.72;4995062;28;20042;-79
2024/02/07 07:44:53;;;;;;;7.63;4.00;;;;;;;6.24;100.00;92332.16;4994289;28;20138;-78
2024/02/07 07:47:19;;;;;;;5.72;3.85;;;;;;;6.14;100.00;92326.19;4994579;28;20105;-79
2024/02/07 07:49:44;;;;;;;6.38;3.20;;;;;;;6.21;100.00;92326.69;4994776;28;20050;-79
2024/02/07 07:52:10;;;;;;;6.78;4.07;;;;;;;6.25;100.00;92327.72;4992792;28;20053;-79
2024/02/07 07:54:37;;;;;;;6.07;3.70;;;;;;;6.22;100.00;92328.25;4980787;28;20033;-79
2024/02/07 07:57:04;;;;;;;6.22;3.92;;;;;;;6.26;100.00;92337.09;4996274;28;20042;-79
2024/02/07 07:59:31;;;;;;;6.93;4.00;;;;;;;6.25;100.00;92340.72;5012048;28;20064;-79
2024/02/07 08:02:00;;;;;;;7.55;4.05;;;;;;;6.25;100.00;92327.72;4997123;28;20454;-80
2024/02/07 08:04:27;;;;;;;9.88;4.00;;;;;;;6.23;100.00;92329.78;4995116;28;20049;-79
2024/02/07 08:06:53;;;;;;;7.25;3.97;;;;;;;6.32;100.00;92335.25;4994545;28;20538;-79
2024/02/07 08:09:19;;;;;;;6.00;3.90;;;;;;;6.43;100.00;92329.75;4995446;28;20046;-79
2024/02/07 08:11:45;;;;;;;6.30;3.88;;;;;;;6.54;100.00;92330.50;4994784;28;20090;-80
2024/02/07 08:14:12;;;;;;;9.10;3.75;;;;;;;6.68;100.00;92330.72;4994504;28;20046;-79
2024/02/07 08:16:38;;;;;;;6.38;3.50;;;;;;;6.64;100.00;92333.09;4992650;28;20464;-79
2024/02/07 08:19:03;;;;;;;6.82;3.70;;;;;;;6.69;100.00;92321.91;4995702;28;20089;-78
2024/02/07 08:21:30;;;;;;;6.82;4.05;;;;;;;6.75;100.00;92326.00;4978359;28;20046;-79
2024/02/07 08:23:56;;;;;;;7.78;4.03;;;;;;;6.84;100.00;92327.03;4995198;28;20043;-79
2024/02/07 08:26:23;;;;;;;5.95;3.85;;;;;;;6.87;100.00;92323.13;4994728;28;20139;-78
2024/02/07 08:28:49;;;;;;;7.20;3.92;;;;;;;6.86;100.00;92324.16;4994640;28;20043;-79
2024/02/07 08:31:16;;;;;;;6.28;3.78;;;;;;;6.98;100.00;92331.66;4994842;28;20049;-81
2024/02/07 08:33:42;;;;;;;6.88;4.10;;;;;;;7.03;100.00;92327.22;4993279;28;20042;-80
2024/02/07 08:36:07;;;;;;;5.93;3.80;;;;;;;6.98;100.00;92329.03;4988906;28;20569;-78
2024/02/07 08:38:33;;;;;;;3.92;2.08;;;;;;;7.23;100.00;92320.34;4992282;28;20133;-79
2024/02/07 08:40:58;;;;;;;6.40;3.80;;;;;;;7.30;100.00;92332.03;4991087;28;20042;-79
2024/02/07 08:43:24;;;;;;;5.60;3.85;;;;;;;7.17;100.00;92332.59;4994573;28;20045;-79
2024/02/07 08:45:49;;;;;;;5.97;3.40;;;;;;;7.29;100.00;92332.28;4992622;28;20719;-79
2024/02/07 08:48:15;;;;;;;8.43;4.28;;;;;;;7.35;100.00;92330.44;4994604;28;20053;-82
2024/02/07 08:50:40;;;;;;;6.45;3.88;;;;;;;7.53;100.00;92335.00;5002842;28;20061;-81
2024/02/07 08:53:07;;;;;;;9.35;4.10;;;;;;;7.58;100.00;92332.38;4994014;28;20050;-82
2024/02/07 08:55:33;;;;;;;7.70;4.50;;;;;;;7.66;100.00;92329.19;4993736;28;20070;-81
2024/02/07 08:57:59;;;;;;;10.30;4.40;;;;;;;7.59;100.00;92335.75;4975881;28;20038;-81
2024/02/07 09:00:24;;;;;;;6.13;4.22;;;;;;;7.62;100.00;92338.59;4994032;28;20050;-82
2024/02/07 09:02:52;;;;;;;9.52;4.38;;;;;;;7.72;100.00;92335.94;5009971;28;20065;-81
2024/02/07 09:05:19;;;;;;;7.65;4.80;;;;;;;7.68;100.00;92337.53;4993815;28;20054;-81
2024/02/07 09:07:45;;;;;;;9.57;5.15;;;;;;;7.87;100.00;92336.84;4993344;28;20061;-80
2024/02/07 09:10:12;;;;;;;6.65;4.32;;;;;;;7.98;100.00;92334.97;4993424;28;20053;-81
2024/02/07 09:12:38;;;;;;;7.90;4.40;;;;;;;8.05;100.00;92338.78;4993655;28;20482;-81
2024/02/07 09:15:04;;;;;;;9.18;5.50;;;;;;;8.03;100.00;92340.13;4990809;28;20070;-80
2024/02/07 09:17:33;;;;;;;8.15;4.70;;;;;;;7.93;100.00;92338.38;4985253;28;20062;-81
2024/02/07 09:19:58;;;;;;;10.68;5.15;;;;;;;7.81;100.00;92338.72;4986172;28;20123;-81
2024/02/07 09:22:23;;;;;;;8.35;5.35;;;;;;;7.83;100.00;92335.84;4991134;28;20042;-82
2024/02/07 09:24:49;;;;;;;7.53;4.93;;;;;;;7.83;100.00;92335.84;4991392;28;20425;-82
2024/02/07 09:27:14;;;;;;;8.25;4.65;;;;;;;7.81;100.00;92340.53;4992866;28;20371;-80
2024/02/07 09:29:40;;;;;;;8.95;4.97;;;;;;;7.84;100.00;92327.75;4990656;28;20057;-82
2024/02/07 09:32:06;;;;;;;10.43;5.53;;;;;;;7.69;100.00;92325.25;4989773;28;20045;-82
2024/02/07 09:34:31;;;;;;;7.43;4.45;;;;;;;7.87;100.00;92334.25;4991832;28;20371;-81
2024/02/07 09:36:56;;;;;;;7.13;4.70;;;;;;;7.97;100.00;92322.97;4990666;28;20506;-81
2024/02/07 09:39:22;;;;;;;7.43;4.82;;;;;;;7.88;100.00;92320.16;4988211;28;20050;-81
2024/02/07 09:41:49;;;;;;;6.78;4.47;;;;;;;8.22;100.00;92314.13;4972042;28;20045;-79
2024/02/07 09:44:16;;;;;;;8.10;4.88;;;;;;;8.42;100.00;92318.41;4991878;28;20054;-81
2024/02/07 09:46:43;;;;;;;3.47;2.35;;;;;;;8.62;100.00;92320.81;4986910;28;20042;-82
2024/02/07 09:49:15;;;;;;;7.63;4.35;;;;;;;8.53;97.60;92320.66;4992235;28;20030;-82
2024/02/07 09:51:41;;;;;;;6.15;4.25;;;;;;;8.60;96.98;92315.13;4991568;28;20073;-82
2024/02/07 09:54:11;;;;;;;7.90;4.22;;;;;;;8.70;98.88;92320.22;4991402;28;20125;-81
2024/02/07 09:56:37;;;;;;;6.68;3.20;;;;;;;8.85;100.00;92315.84;4992879;28;20025;-82
2024/02/07 09:59:04;;;;;;;8.13;4.45;;;;;;;8.51;98.85;92309.72;4992328;28;20457;-81
2024/02/07 10:01:30;;;;;;;8.73;4.60;;;;;;;8.52;100.00;92308.66;4993120;28;20113;-81
2024/02/07 10:03:57;;;;;;;6.63;4.28;;;;;;;8.29;100.00;92309.41;4989628;28;20502;-81
2024/02/07 10:06:25;;;;;;;8.88;4.15;;;;;;;8.27;100.00;92308.91;4989957;28;20110;-80
2024/02/07 10:08:51;;;;;;;7.45;4.03;;;;;;;8.23;100.00;92313.09;4986046;28;20030;-82
2024/02/07 10:11:17;;;;;;;7.25;3.75;;;;;;;8.25;100.00;92314.38;4994798;28;20056;-81
2024/02/07 10:13:43;;;;;;;7.80;4.63;;;;;;;8.36;100.00;92315.06;4991849;28;20105;-79
2024/02/07 10:16:09;;;;;;;9.95;4.45;;;;;;;8.25;100.00;92313.59;4984019;28;20043;-81
2024/02/07 10:18:35;;;;;;;6.47;4.03;;;;;;;8.30;100.00;92313.56;4985980;28;20499;-81
2024/02/07 10:21:04;;;;;;;9.13;4.28;;;;;;;8.14;97.52;92315.53;4985625;28;20089;-82
2024/02/07 10:23:30;;;;;;;6.45;3.95;;;;;;;8.19;99.81;92307.66;4994969;28;20034;-82
2024/02/07 10:25:59;;;;;;;5.60;3.30;;;;;;;8.55;96.56;92299.50;4995073;28;20129;-80
2024/02/07 10:28:26;;;;;;;6.43;4.05;;;;;;;8.44;98.40;92295.44;4996553;28;20180;-79
2024/02/07 10:31:12;;;;;;;7.20;4.03;;;;;;;8.19;98.42;92291.22;4993669;28;20045;-80
2024/02/07 10:33:40;;;;;;;8.20;4.55;;;;;;;8.07;96.81;92294.22;4994370;28;20101;-80
2024/02/07 10:36:06;;;;;;;10.57;4.28;;;;;;;8.03;99.55;92304.41;4989159;28;20026;-79
2024/02/07 10:38:33;;;;;;;7.65;3.78;;;;;;;8.11;97.50;92303.03;4995982;28;20058;-79
2024/02/07 10:41:00;;;;;;;6.80;3.88;;;;;;;8.33;98.52;92294.72;4993981;28;20482;-79
2024/02/07 10:43:38;;;;;;;6.05;3.70;;;;;;;8.38;94.64;92292.09;4991058;28;20038;-79
2024/02/07 10:46:07;;;;;;;7.90;4.05;;;;;;;8.63;95.99;92287.69;4990287;28;20441;-80
2024/02/07 10:48:34;;;;;;;6.90;3.55;;;;;;;9.04;93.38;92277.53;4992326;28;20042;-79
2024/02/07 10:51:02;;;;;;;5.95;3.83;;;;;;;8.97;91.70;92277.09;4993536;28;20509;-79
2024/02/07 10:53:28;;;;;;;6.97;3.78;;;;;;;9.05;93.28;92280.91;4989954;28;20033;-79
2024/02/07 10:55:58;;;;;;;7.40;3.60;;;;;;;9.22;91.70;92273.38;4994973;28;20042;-80
2024/02/07 10:58:27;;;;;;;8.38;3.92;;;;;;;9.32;90.38;92270.63;4984399;28;20045;-80
2024/02/07 11:00:54;;;;;;;6.32;3.90;;;;;;;9.40;89.37;92256.13;4993116;28;20528;-80
2024/02/07 11:03:22;;;;;;;6.63;3.80;;;;;;;9.61;90.35;92251.38;4976199;28;20509;-79
2024/02/07 11:05:48;;;;;;;8.80;4.30;;;;;;;9.85;86.87;92253.09;4994568;28;20046;-79
2024/02/07 11:08:15;;;;;;;7.18;3.60;;;;;;;9.71;86.31;92240.75;4991718;28;20054;-80
2024/02/07 11:10:40;;;;;;;7.60;3.72;;;;;;;9.77;87.17;92233.59;4992610;28;20502;-80
2024/02/07 11:13:09;;;;;;;7.30;3.35;;;;;;;9.78;87.47;92228.09;4994117;28;20038;-79
2024/02/07 11:15:35;;;;;;;6.50;3.10;;;;;;;9.89;87.32;92239.16;4992731;28;20100;-79
2024/02/07 11:18:01;;;;;;;4.28;2.70;;;;;;;10.14;85.05;92231.94;4992914;28;20082;-79
2024/02/07 11:20:28;;;;;;;6.15;3.25;;;;;;;10.07;84.44;92232.31;4993178;28;20069;-79
2024/02/07 11:22:56;;;;;;;6.55;4.00;;;;;;;10.43;86.29;92229.09;4991216;28;20053;-79
2024/02/07 11:25:23;;;;;;;6.88;4.07;;;;;;;10.72;84.29;92217.56;4993467;28;20034;-80
2024/02/07 11:27:52;;;;;;;7.30;4.50;;;;;;;10.80;85.18;92216.84;4993263;28;20033;-79
2024/02/07 11:30:19;;;;;;;6.78;4.07;;;;;;;10.71;86.30;92208.13;4990817;28;20081;-79
2024/02/07 11:32:50;;;;;;;6.47;3.30;;;;;;;10.48;81.40;92200.19;4991947;28;20132;-79
2024/02/07 11:35:19;;;;;;;7.15;3.08;;;;;;;10.58;82.25;92213.09;4992311;28;20486;-79
2024/02/07 11:37:48;;;;;;;6.90;4.20;;;;;;;10.24;81.22;92207.44;4993408;28;20082;-79
2024/02/07 11:40:14;;;;;;;6.22;3.67;;;;;;;10.03;85.46;92199.19;4995466;28;20473;-79
2024/02/07 11:42:40;;;;;;;4.63;3.15;;;;;;;9.83;87.65;92206.31;4992113;28;20066;-79
2024/02/07 11:45:09;;;;;;;6.93;3.67;;;;;;;9.43;91.41;92200.69;4994783;28;20088;-79
2024/02/07 11:47:40;;;;;;;5.35;3.65;;;;;;;9.31;91.96;92193.31;5006098;28;20022;-78
2024/02/07 11:50:06;;;;;;;9.13;4.10;;;;;;;9.29;94.29;92200.66;4990920;28;20125;-79
2024/02/07 11:52:35;;;;;;;5.35;3.20;;;;;;;9.48;90.29;92192.78;4991096;28;20049;-79
2024/02/07 11:55:07;;;;;;;7.05;3.20;;;;;;;9.43;89.60;92189.47;4991303;28;20026;-78
2024/02/07 11:57:33;;;;;;;;;;;;;;;9.58;92.20;92186.63;4992087;28;20049;-79
2024/02/07 12:00:00;;;;;;;6.65;3.50;;;;;;;9.65;91.06;92192.25;4991539;28;19918;-79
2024/02/07 12:02:26;;;;;;;3.90;2.63;;;;;;;9.61;87.66;92178.19;4992898;28;20033;-79
2024/02/07 12:04:52;;;;;;;5.47;2.90;;;;;;;9.73;83.99;92185.59;4991790;28;20026;-79
2024/02/07 12:07:19;;;;;;;6.75;3.10;;;;;;;9.58;85.99;92179.53;4991600;28;20549;-79
2024/02/07 12:09:45;;;;;;;5.78;3.15;;;;;;;9.51;89.26;92175.75;4992965;28;20042;-79
2024/02/07 12:12:13;;;;;;;6.43;2.83;;;;;;;9.54;87.02;92175.19;4991939;28;20600;-79
2024/02/07 12:14:39;;;;;;;5.65;2.85;;;;;;;9.62;88.24;92171.16;4988360;28;20034;-79
2024/02/07 12:17:06;;;;;;;5.65;2.78;;;;;;;9.67;87.22;92171.81;5004777;28;20074;-79
2024/02/07 12:19:35;;;;;;;4.60;2.75;;;;;;;9.65;88.46;92168.72;4987921;28;20030;-79
2024/02/07 12:22:02;;;;;;;6.25;2.75;;;;;;;9.71;87.91;92170.19;4988783;28;20465;-79
2024/02/07 12:24:31;;;;;;;6.90;3.53;;;;;;;9.69;89.03;92161.88;4993194;28;20034;-79
2024/02/07 12:27:10;;;;;;;6.40;3.25;;;;;;;9.63;89.55;92163.00;4993152;28;20170;-80
2024/02/07 12:29:36;;;;;;;5.63;3.10;;;;;;;9.63;89.85;92151.78;4992601;28;20061;-79
2024/02/07 12:32:02;;;;;;;5.18;2.97;;;;;;;9.80;86.77;92152.00;5007018;28;20489;-80
2024/02/07 12:34:27;;;;;;;5.00;3.25;;;;;;;9.59;86.91;92156.81;4991909;28;20814;-79